sensor_id;sensor_type;location;lat;lon;timestamp;temperature;humidity
34061;DHT22;20336;-33.424;-70.638;2023-07-02T10:48:09;8.50;99.90
34061;DHT22;20336;-33.424;-70.638;2023-07-02T10:50:36;8.50;99.90
34061;DHT22;20336;-33.424;-70.638;2023-07-02T10:53:04;8.40;99.90
34061;DHT22;20336;-33.424;-70.638;2023-07-02T10:55:31;8.40;99.90
34061;DHT22;20336;-33.424;-70.638;2023-07-02T10:58:05;8.50;99.90
34061;DHT22;20336;-33.424;-70.638;2023-07-02T11:00:32;8.40;99.90
34061;DHT22;20336;-33.424;-70.638;2023-07-02T11:03:00;8.40;99.90
34061;DHT22;20336;-33.424;-70.638;2023-07-02T11:05:26;8.40;99.90
34061;DHT22;20336;-33.424;-70.638;2023-07-02T11:07:53;8.30;99.90
34061;DHT22;20336;-33.424;-70.638;2023-07-02T11:10:24;8.40;99.90
34061;DHT22;20336;-33.424;-70.638;2023-07-02T11:12:51;8.40;99.90
34061;DHT22;20336;-33.424;-70.638;2023-07-02T11:15:18;8.40;99.90
34061;DHT22;20336;-33.424;-70.638;2023-07-02T11:17:45;8.40;99.90
34061;DHT22;20336;-33.424;-70.638;2023-07-02T11:20:14;8.60;99.90
34061;DHT22;20336;-33.424;-70.638;2023-07-02T11:22:42;8.50;99.90
34061;DHT22;20336;-33.424;-70.638;2023-07-02T11:25:17;8.50;99.90
34061;DHT22;20336;-33.424;-70.638;2023-07-02T11:27:45;8.50;99.90
34061;DHT22;20336;-33.424;-70.638;2023-07-02T11:30:12;8.50;99.90
34061;DHT22;20336;-33.424;-70.638;2023-07-02T11:32:53;8.50;99.90
34061;DHT22;20336;-33.424;-70.638;2023-07-02T11:35:21;8.50;99.90
34061;DHT22;20336;-33.424;-70.638;2023-07-02T11:37:49;8.50;99.90
34061;DHT22;20336;-33.424;-70.638;2023-07-02T11:40:19;8.60;99.90
34061;DHT22;20336;-33.424;-70.638;2023-07-02T11:42:45;8.50;99.90
34061;DHT22;20336;-33.424;-70.638;2023-07-02T11:45:12;8.60;99.90
34061;DHT22;20336;-33.424;-70.638;2023-07-02T11:47:39;8.60;99.90
34061;DHT22;20336;-33.424;-70.638;2023-07-02T11:50:06;8.70;99.90
34061;DHT22;20336;-33.424;-70.638;2023-07-02T11:52:33;8.60;99.90
34061;DHT22;20336;-33.424;-70.638;2023-07-02T11:55:00;8.60;99.90
34061;DHT22;20336;-33.424;-70.638;2023-07-02T11:57:27;8.50;99.90
34061;DHT22;20336;-33.424;-70.638;2023-07-02T11:59:54;8.40;99.90
34061;DHT22;20336;-33.424;-70.638;2023-07-02T12:02:21;8.60;99.90
34061;DHT22;20336;-33.424;-70.638;2023-07-02T12:04:47;8.40;99.90
34061;DHT22;20336;-33.424;-70.638;2023-07-02T12:07:14;8.30;99.90
34061;DHT22;20336;-33.424;-70.638;2023-07-02T12:09:41;8.20;99.90
34061;DHT22;20336;-33.424;-70.638;2023-07-02T12:12:08;8.20;99.90
34061;DHT22;20336;-33.424;-70.638;2023-07-02T12:14:35;8.30;99.90
34061;DHT22;20336;-33.424;-70.638;2023-07-02T12:17:03;8.30;99.90
34061;DHT22;20336;-33.424;-70.638;2023-07-02T12:19:30;8.40;99.90
34061;DHT22;20336;-33.424;-70.638;2023-07-02T12:21:57;8.50;99.90
34061;DHT22;20336;-33.424;-70.638;2023-07-02T12:24:24;8.60;99.90
34061;DHT22;20336;-33.424;-70.638;2023-07-02T12:26:51;8.70;99.90
34061;DHT22;20336;-33.424;-70.638;2023-07-02T12:29:18;8.80;99.90
34061;DHT22;20336;-33.424;-70.638;2023-07-02T12:31:44;8.80;99.90
34061;DHT22;20336;-33.424;-70.638;2023-07-02T12:34:11;8.80;99.90
34061;DHT22;20336;-33.424;-70.638;2023-07-02T12:36:38;8.80;99.90
34061;DHT22;20336;-33.424;-70.638;2023-07-02T12:39:05;8.80;99.90
34061;DHT22;20336;-33.424;-70.638;2023-07-02T12:41:32;8.80;99.90
34061;DHT22;20336;-33.424;-70.638;2023-07-02T12:43:59;8.70;99.90
34061;DHT22;20336;-33.424;-70.638;2023-07-02T12:46:26;8.80;99.90
34061;DHT22;20336;-33.424;-70.638;2023-07-02T12:48:53;8.90;99.90
34061;DHT22;20336;-33.424;-70.638;2023-07-02T12:51:20;9.00;99.90
34061;DHT22;20336;-33.424;-70.638;2023-07-02T12:53:50;9.10;99.90
34061;DHT22;20336;-33.424;-70.638;2023-07-02T12:56:17;9.20;99.90
34061;DHT22;20336;-33.424;-70.638;2023-07-02T12:58:44;9.30;99.90
34061;DHT22;20336;-33.424;-70.638;2023-07-02T13:01:11;9.50;99.90
34061;DHT22;20336;-33.424;-70.638;2023-07-02T13:03:37;9.50;99.90
34061;DHT22;20336;-33.424;-70.638;2023-07-02T13:06:04;9.50;99.90
34061;DHT22;20336;-33.424;-70.638;2023-07-02T13:08:31;9.50;99.90
34061;DHT22;20336;-33.424;-70.638;2023-07-02T13:10:58;9.60;99.90
34061;DHT22;20336;-33.424;-70.638;2023-07-02T13:13:25;9.60;99.90
34061;DHT22;20336;-33.424;-70.638;2023-07-02T13:15:51;9.70;99.90
34061;DHT22;20336;-33.424;-70.638;2023-07-02T13:18:18;9.50;99.90
34061;DHT22;20336;-33.424;-70.638;2023-07-02T13:20:45;9.30;99.90
34061;DHT22;20336;-33.424;-70.638;2023-07-02T13:23:12;9.30;99.90
34061;DHT22;20336;-33.424;-70.638;2023-07-02T13:25:39;9.30;99.90
34061;DHT22;20336;-33.424;-70.638;2023-07-02T13:28:05;9.30;99.90
34061;DHT22;20336;-33.424;-70.638;2023-07-02T13:30:32;9.20;99.90
34061;DHT22;20336;-33.424;-70.638;2023-07-02T13:32:59;9.30;99.90
34061;DHT22;20336;-33.424;-70.638;2023-07-02T13:35:26;9.20;99.90
34061;DHT22;20336;-33.424;-70.638;2023-07-02T13:37:52;9.20;99.90
34061;DHT22;20336;-33.424;-70.638;2023-07-02T13:40:19;9.30;99.90
34061;DHT22;20336;-33.424;-70.638;2023-07-02T13:42:46;9.20;99.90
34061;DHT22;20336;-33.424;-70.638;2023-07-02T13:45:13;9.10;99.90
34061;DHT22;20336;-33.424;-70.638;2023-07-02T13:47:40;9.20;99.90
34061;DHT22;20336;-33.424;-70.638;2023-07-02T13:50:07;9.30;99.90
34061;DHT22;20336;-33.424;-70.638;2023-07-02T13:52:34;9.20;99.90
34061;DHT22;20336;-33.424;-70.638;2023-07-02T13:55:01;9.20;99.90
34061;DHT22;20336;-33.424;-70.638;2023-07-02T13:57:27;9.30;99.90
34061;DHT22;20336;-33.424;-70.638;2023-07-02T13:59:54;9.40;99.90
34061;DHT22;20336;-33.424;-70.638;2023-07-02T14:02:23;9.30;99.90
34061;DHT22;20336;-33.424;-70.638;2023-07-02T14:04:50;9.30;99.90
34061;DHT22;20336;-33.424;-70.638;2023-07-02T14:07:17;9.40;99.90
34061;DHT22;20336;-33.424;-70.638;2023-07-02T14:09:44;9.30;99.90
34061;DHT22;20336;-33.424;-70.638;2023-07-02T14:12:11;9.30;99.90
34061;DHT22;20336;-33.424;-70.638;2023-07-02T14:14:38;9.30;99.90
34061;DHT22;20336;-33.424;-70.638;2023-07-02T14:17:05;9.40;99.90
34061;DHT22;20336;-33.424;-70.638;2023-07-02T14:19:33;9.20;99.90
34061;DHT22;20336;-33.424;-70.638;2023-07-02T14:22:00;9.30;99.90
34061;DHT22;20336;-33.424;-70.638;2023-07-02T14:24:26;9.40;99.90
34061;DHT22;20336;-33.424;-70.638;2023-07-02T14:26:56;9.50;99.90
34061;DHT22;20336;-33.424;-70.638;2023-07-02T14:29:23;9.50;99.90
34061;DHT22;20336;-33.424;-70.638;2023-07-02T14:31:50;9.50;99.90
34061;DHT22;20336;-33.424;-70.638;2023-07-02T14:34:17;9.40;99.90
34061;DHT22;20336;-33.424;-70.638;2023-07-02T14:36:43;9.40;99.90
34061;DHT22;20336;-33.424;-70.638;2023-07-02T14:39:10;9.50;99.90
34061;DHT22;20336;-33.424;-70.638;2023-07-02T14:41:37;9.70;99.90
34061;DHT22;20336;-33.424;-70.638;2023-07-02T14:44:04;9.80;99.90
34061;DHT22;20336;-33.424;-70.638;2023-07-02T14:46:32;9.60;99.90
34061;DHT22;20336;-33.424;-70.638;2023-07-02T14:49:00;9.50;99.90
34061;DHT22;20336;-33.424;-70.638;2023-07-02T14:51:26;9.60;99.90
34061;DHT22;20336;-33.424;-70.638;2023-07-02T14:53:53;9.90;99.90
34061;DHT22;20336;-33.424;-70.638;2023-07-02T14:56:21;9.90;99.90
34061;DHT22;20336;-33.424;-70.638;2023-07-02T14:58:48;9.80;99.90
34061;DHT22;20336;-33.424;-70.638;2023-07-02T15:01:15;9.80;99.90
34061;DHT22;20336;-33.424;-70.638;2023-07-02T15:03:42;9.60;99.90
34061;DHT22;20336;-33.424;-70.638;2023-07-02T15:06:12;9.80;99.90
34061;DHT22;20336;-33.424;-70.638;2023-07-02T15:08:39;9.80;99.90
34061;DHT22;20336;-33.424;-70.638;2023-07-02T15:11:07;9.90;99.90
34061;DHT22;20336;-33.424;-70.638;2023-07-02T15:13:34;10.00;99.90
34061;DHT22;20336;-33.424;-70.638;2023-07-02T15:16:01;10.00;99.90
34061;DHT22;20336;-33.424;-70.638;2023-07-02T15:18:28;10.00;99.90
34061;DHT22;20336;-33.424;-70.638;2023-07-02T15:20:55;10.10;99.90
34061;DHT22;20336;-33.424;-70.638;2023-07-02T15:23:24;10.10;99.90
34061;DHT22;20336;-33.424;-70.638;2023-07-02T15:25:58;10.20;99.90
34061;DHT22;20336;-33.424;-70.638;2023-07-02T15:28:26;10.00;99.90
34061;DHT22;20336;-33.424;-70.638;2023-07-02T15:30:58;10.20;99.90
34061;DHT22;20336;-33.424;-70.638;2023-07-02T15:33:25;10.20;99.90
34061;DHT22;20336;-33.424;-70.638;2023-07-02T15:35:52;10.20;99.90
34061;DHT22;20336;-33.424;-70.638;2023-07-02T15:38:19;10.30;99.90
34061;DHT22;20336;-33.424;-70.638;2023-07-02T15:40:48;10.50;99.90
34061;DHT22;20336;-33.424;-70.638;2023-07-02T15:43:15;10.30;99.90
34061;DHT22;20336;-33.424;-70.638;2023-07-02T15:45:42;10.30;99.90
34061;DHT22;20336;-33.424;-70.638;2023-07-02T15:48:09;10.30;99.90
34061;DHT22;20336;-33.424;-70.638;2023-07-02T15:50:36;10.10;99.90
34061;DHT22;20336;-33.424;-70.638;2023-07-02T15:53:03;10.30;99.90
34061;DHT22;20336;-33.424;-70.638;2023-07-02T15:55:33;10.40;99.90
34061;DHT22;20336;-33.424;-70.638;2023-07-02T15:58:00;10.50;99.90
34061;DHT22;20336;-33.424;-70.638;2023-07-02T16:00:27;10.40;99.90
34061;DHT22;20336;-33.424;-70.638;2023-07-02T16:02:54;10.30;99.90
34061;DHT22;20336;-33.424;-70.638;2023-07-02T16:05:22;10.30;99.90
34061;DHT22;20336;-33.424;-70.638;2023-07-02T16:07:49;10.50;99.90
34061;DHT22;20336;-33.424;-70.638;2023-07-02T16:10:15;10.40;99.90
34061;DHT22;20336;-33.424;-70.638;2023-07-02T16:12:42;10.10;99.90
34061;DHT22;20336;-33.424;-70.638;2023-07-02T16:15:09;10.20;99.90
34061;DHT22;20336;-33.424;-70.638;2023-07-02T16:17:36;10.30;99.90
34061;DHT22;20336;-33.424;-70.638;2023-07-02T16:20:03;10.40;99.90
34061;DHT22;20336;-33.424;-70.638;2023-07-02T16:22:30;10.40;99.90
34061;DHT22;20336;-33.424;-70.638;2023-07-02T16:24:57;10.40;99.90
34061;DHT22;20336;-33.424;-70.638;2023-07-02T16:27:24;10.40;99.90
34061;DHT22;20336;-33.424;-70.638;2023-07-02T16:29:51;10.40;99.90
34061;DHT22;20336;-33.424;-70.638;2023-07-02T16:32:17;10.40;99.90
34061;DHT22;20336;-33.424;-70.638;2023-07-02T16:34:47;10.40;99.90
34061;DHT22;20336;-33.424;-70.638;2023-07-02T16:37:15;10.80;99.90
34061;DHT22;20336;-33.424;-70.638;2023-07-02T16:39:42;10.60;99.90
34061;DHT22;20336;-33.424;-70.638;2023-07-02T16:42:09;10.60;99.90
34061;DHT22;20336;-33.424;-70.638;2023-07-02T16:44:38;10.80;99.90
34061;DHT22;20336;-33.424;-70.638;2023-07-02T16:47:05;11.00;99.90
34061;DHT22;20336;-33.424;-70.638;2023-07-02T16:49:32;10.90;99.90
34061;DHT22;20336;-33.424;-70.638;2023-07-02T16:51:59;10.70;99.90
34061;DHT22;20336;-33.424;-70.638;2023-07-02T16:54:26;10.60;99.90
34061;DHT22;20336;-33.424;-70.638;2023-07-02T16:56:58;10.50;99.90
34061;DHT22;20336;-33.424;-70.638;2023-07-02T16:59:27;10.60;99.90
34061;DHT22;20336;-33.424;-70.638;2023-07-02T17:01:56;10.60;99.90
34061;DHT22;20336;-33.424;-70.638;2023-07-02T17:04:24;10.50;99.90
34061;DHT22;20336;-33.424;-70.638;2023-07-02T17:06:56;10.40;99.90
34061;DHT22;20336;-33.424;-70.638;2023-07-02T17:09:29;10.50;99.90
34061;DHT22;20336;-33.424;-70.638;2023-07-02T17:12:07;10.70;99.90
34061;DHT22;20336;-33.424;-70.638;2023-07-02T17:14:36;10.70;99.90
34061;DHT22;20336;-33.424;-70.638;2023-07-02T17:17:14;10.80;99.90
34061;DHT22;20336;-33.424;-70.638;2023-07-02T17:19:45;11.00;99.90
34061;DHT22;20336;-33.424;-70.638;2023-07-02T17:22:15;11.10;99.90
34061;DHT22;20336;-33.424;-70.638;2023-07-02T17:24:44;10.90;99.90
34061;DHT22;20336;-33.424;-70.638;2023-07-02T17:27:13;11.10;99.90
34061;DHT22;20336;-33.424;-70.638;2023-07-02T17:29:41;10.80;99.90
34061;DHT22;20336;-33.424;-70.638;2023-07-02T17:32:09;10.80;99.90
34061;DHT22;20336;-33.424;-70.638;2023-07-02T17:34:37;10.80;99.90
34061;DHT22;20336;-33.424;-70.638;2023-07-02T17:37:06;10.80;99.90
34061;DHT22;20336;-33.424;-70.638;2023-07-02T17:39:35;10.90;99.90
34061;DHT22;20336;-33.424;-70.638;2023-07-02T17:42:03;10.90;99.90
34061;DHT22;20336;-33.424;-70.638;2023-07-02T17:44:38;10.80;99.90
34061;DHT22;20336;-33.424;-70.638;2023-07-02T17:47:08;10.80;99.90
34061;DHT22;20336;-33.424;-70.638;2023-07-02T17:49:39;10.90;99.90
34061;DHT22;20336;-33.424;-70.638;2023-07-02T17:52:09;10.90;99.90
34061;DHT22;20336;-33.424;-70.638;2023-07-02T17:54:38;11.00;99.90
34061;DHT22;20336;-33.424;-70.638;2023-07-02T17:57:07;11.10;99.90
34061;DHT22;20336;-33.424;-70.638;2023-07-02T17:59:34;11.00;99.90
34061;DHT22;20336;-33.424;-70.638;2023-07-02T18:02:02;10.90;99.90
34061;DHT22;20336;-33.424;-70.638;2023-07-02T18:04:29;11.10;99.90
34061;DHT22;20336;-33.424;-70.638;2023-07-02T18:07:09;11.20;99.90
34061;DHT22;20336;-33.424;-70.638;2023-07-02T18:09:39;11.20;99.90
34061;DHT22;20336;-33.424;-70.638;2023-07-02T18:12:10;11.30;99.90
34061;DHT22;20336;-33.424;-70.638;2023-07-02T18:14:42;11.20;99.90
34061;DHT22;20336;-33.424;-70.638;2023-07-02T18:17:09;11.30;99.90
34061;DHT22;20336;-33.424;-70.638;2023-07-02T18:19:36;11.40;99.90
34061;DHT22;20336;-33.424;-70.638;2023-07-02T18:22:04;11.60;99.90
34061;DHT22;20336;-33.424;-70.638;2023-07-02T18:24:37;11.60;99.90
34061;DHT22;20336;-33.424;-70.638;2023-07-02T18:27:06;11.50;99.90
34061;DHT22;20336;-33.424;-70.638;2023-07-02T18:29:35;11.50;99.90
34061;DHT22;20336;-33.424;-70.638;2023-07-02T18:32:04;11.60;99.90
34061;DHT22;20336;-33.424;-70.638;2023-07-02T18:34:34;12.10;99.90
34061;DHT22;20336;-33.424;-70.638;2023-07-02T18:37:02;11.80;99.90
34061;DHT22;20336;-33.424;-70.638;2023-07-02T18:39:30;11.90;99.90
34061;DHT22;20336;-33.424;-70.638;2023-07-02T18:42:01;11.80;99.90
34061;DHT22;20336;-33.424;-70.638;2023-07-02T18:44:28;11.90;99.90
34061;DHT22;20336;-33.424;-70.638;2023-07-02T18:47:05;11.90;99.90
34061;DHT22;20336;-33.424;-70.638;2023-07-02T18:49:34;11.90;99.90
34061;DHT22;20336;-33.424;-70.638;2023-07-02T18:52:12;12.10;99.90
34061;DHT22;20336;-33.424;-70.638;2023-07-02T18:54:39;12.20;99.90
34061;DHT22;20336;-33.424;-70.638;2023-07-02T18:57:07;12.30;99.90
34061;DHT22;20336;-33.424;-70.638;2023-07-02T18:59:35;12.70;99.90
34061;DHT22;20336;-33.424;-70.638;2023-07-02T19:02:03;12.90;99.90
34061;DHT22;20336;-33.424;-70.638;2023-07-02T19:04:31;13.20;99.90
34061;DHT22;20336;-33.424;-70.638;2023-07-02T19:06:59;13.50;99.90
34061;DHT22;20336;-33.424;-70.638;2023-07-02T19:09:28;13.80;99.90
34061;DHT22;20336;-33.424;-70.638;2023-07-02T19:11:55;13.60;99.90
34061;DHT22;20336;-33.424;-70.638;2023-07-02T19:14:22;13.80;99.90
34061;DHT22;20336;-33.424;-70.638;2023-07-02T19:16:49;13.60;99.90
34061;DHT22;20336;-33.424;-70.638;2023-07-02T19:19:16;13.50;99.90
34061;DHT22;20336;-33.424;-70.638;2023-07-02T19:21:42;13.30;99.90
34061;DHT22;20336;-33.424;-70.638;2023-07-02T19:24:09;13.80;99.90
34061;DHT22;20336;-33.424;-70.638;2023-07-02T19:26:37;14.40;99.90
34061;DHT22;20336;-33.424;-70.638;2023-07-02T19:29:03;14.90;99.90
34061;DHT22;20336;-33.424;-70.638;2023-07-02T19:31:30;15.90;99.90
34061;DHT22;20336;-33.424;-70.638;2023-07-02T19:33:57;15.90;99.90
34061;DHT22;20336;-33.424;-70.638;2023-07-02T19:36:25;16.10;99.90
34061;DHT22;20336;-33.424;-70.638;2023-07-02T19:38:52;16.60;99.90
34061;DHT22;20336;-33.424;-70.638;2023-07-02T19:41:19;16.60;99.90
34061;DHT22;20336;-33.424;-70.638;2023-07-02T19:43:45;17.30;99.90
34061;DHT22;20336;-33.424;-70.638;2023-07-02T19:46:15;17.20;99.90
34061;DHT22;20336;-33.424;-70.638;2023-07-02T19:48:41;17.60;99.90
34061;DHT22;20336;-33.424;-70.638;2023-07-02T19:51:08;17.20;99.90
34061;DHT22;20336;-33.424;-70.638;2023-07-02T19:53:35;17.20;99.90
34061;DHT22;20336;-33.424;-70.638;2023-07-02T19:56:06;17.80;99.90
34061;DHT22;20336;-33.424;-70.638;2023-07-02T19:58:34;18.00;99.90
34061;DHT22;20336;-33.424;-70.638;2023-07-02T20:01:01;17.50;99.90
34061;DHT22;20336;-33.424;-70.638;2023-07-02T20:03:28;17.40;99.90
34061;DHT22;20336;-33.424;-70.638;2023-07-02T20:05:55;17.30;99.90
34061;DHT22;20336;-33.424;-70.638;2023-07-02T20:08:22;17.50;99.90
34061;DHT22;20336;-33.424;-70.638;2023-07-02T20:10:48;18.40;99.90
34061;DHT22;20336;-33.424;-70.638;2023-07-02T20:13:15;17.50;99.90
34061;DHT22;20336;-33.424;-70.638;2023-07-02T20:15:42;16.90;99.90
34061;DHT22;20336;-33.424;-70.638;2023-07-02T20:18:10;16.80;99.90
34061;DHT22;20336;-33.424;-70.638;2023-07-02T20:20:37;16.20;99.90
34061;DHT22;20336;-33.424;-70.638;2023-07-02T20:23:04;16.00;99.90
34061;DHT22;20336;-33.424;-70.638;2023-07-02T20:25:30;15.90;99.90
34061;DHT22;20336;-33.424;-70.638;2023-07-02T20:27:57;15.80;99.90
34061;DHT22;20336;-33.424;-70.638;2023-07-02T20:30:26;15.10;99.90
34061;DHT22;20336;-33.424;-70.638;2023-07-02T20:32:53;15.10;99.90
34061;DHT22;20336;-33.424;-70.638;2023-07-02T20:35:20;14.90;99.90
34061;DHT22;20336;-33.424;-70.638;2023-07-02T20:37:50;14.90;99.90
34061;DHT22;20336;-33.424;-70.638;2023-07-02T20:40:17;15.00;99.90
34061;DHT22;20336;-33.424;-70.638;2023-07-02T20:42:44;15.00;99.90
34061;DHT22;20336;-33.424;-70.638;2023-07-02T20:45:12;14.90;99.90
34061;DHT22;20336;-33.424;-70.638;2023-07-02T20:47:40;15.00;99.90
34061;DHT22;20336;-33.424;-70.638;2023-07-02T20:50:13;15.10;99.90
34061;DHT22;20336;-33.424;-70.638;2023-07-02T20:52:41;14.70;99.90
34061;DHT22;20336;-33.424;-70.638;2023-07-02T20:55:08;14.70;99.90
34061;DHT22;20336;-33.424;-70.638;2023-07-02T20:57:35;14.50;99.90
34061;DHT22;20336;-33.424;-70.638;2023-07-02T21:00:03;14.20;99.90
34061;DHT22;20336;-33.424;-70.638;2023-07-02T21:02:35;13.80;99.90
34061;DHT22;20336;-33.424;-70.638;2023-07-02T21:05:02;13.70;99.90
34061;DHT22;20336;-33.424;-70.638;2023-07-02T21:07:29;13.50;99.90
34061;DHT22;20336;-33.424;-70.638;2023-07-02T21:09:55;13.40;99.90
34061;DHT22;20336;-33.424;-70.638;2023-07-02T21:12:23;13.20;99.90
34061;DHT22;20336;-33.424;-70.638;2023-07-02T21:14:51;13.00;99.90
34061;DHT22;20336;-33.424;-70.638;2023-07-02T21:17:18;12.70;99.90
34061;DHT22;20336;-33.424;-70.638;2023-07-02T21:19:45;12.40;99.90
34061;DHT22;20336;-33.424;-70.638;2023-07-02T21:22:12;12.10;99.90
34061;DHT22;20336;-33.424;-70.638;2023-07-02T21:24:39;11.80;99.90
34061;DHT22;20336;-33.424;-70.638;2023-07-02T21:27:06;11.60;99.90
34061;DHT22;20336;-33.424;-70.638;2023-07-02T21:29:33;11.40;99.90
34061;DHT22;20336;-33.424;-70.638;2023-07-02T21:32:00;11.30;99.90
34061;DHT22;20336;-33.424;-70.638;2023-07-02T21:34:27;11.20;99.90
34061;DHT22;20336;-33.424;-70.638;2023-07-02T21:36:53;11.00;99.90
34061;DHT22;20336;-33.424;-70.638;2023-07-02T21:39:20;10.80;99.90
34061;DHT22;20336;-33.424;-70.638;2023-07-02T21:41:47;10.60;99.90
34061;DHT22;20336;-33.424;-70.638;2023-07-02T21:44:14;10.40;99.90
34061;DHT22;20336;-33.424;-70.638;2023-07-02T21:46:41;10.20;99.90
34061;DHT22;20336;-33.424;-70.638;2023-07-02T21:49:08;10.10;99.90
34061;DHT22;20336;-33.424;-70.638;2023-07-02T21:51:35;9.90;99.90
34061;DHT22;20336;-33.424;-70.638;2023-07-02T21:54:02;9.80;99.90
34061;DHT22;20336;-33.424;-70.638;2023-07-02T21:56:29;9.70;99.90
34061;DHT22;20336;-33.424;-70.638;2023-07-02T21:58:55;9.60;99.90
34061;DHT22;20336;-33.424;-70.638;2023-07-02T22:01:22;9.60;99.90
34061;DHT22;20336;-33.424;-70.638;2023-07-02T22:03:49;9.50;99.90
34061;DHT22;20336;-33.424;-70.638;2023-07-02T22:06:16;9.40;99.90
34061;DHT22;20336;-33.424;-70.638;2023-07-02T22:08:43;9.40;99.90
34061;DHT22;20336;-33.424;-70.638;2023-07-02T22:11:14;9.30;99.90
34061;DHT22;20336;-33.424;-70.638;2023-07-02T22:13:42;9.30;99.90
34061;DHT22;20336;-33.424;-70.638;2023-07-02T22:16:08;9.40;99.90
34061;DHT22;20336;-33.424;-70.638;2023-07-02T22:18:35;9.50;99.90
34061;DHT22;20336;-33.424;-70.638;2023-07-02T22:21:06;9.50;99.90
34061;DHT22;20336;-33.424;-70.638;2023-07-02T22:23:33;9.50;99.90
34061;DHT22;20336;-33.424;-70.638;2023-07-02T22:26:00;9.50;99.90
34061;DHT22;20336;-33.424;-70.638;2023-07-02T22:28:27;9.50;99.90
34061;DHT22;20336;-33.424;-70.638;2023-07-02T22:30:54;9.50;99.90
34061;DHT22;20336;-33.424;-70.638;2023-07-02T22:33:21;9.50;99.90
34061;DHT22;20336;-33.424;-70.638;2023-07-02T22:35:48;9.50;99.90
34061;DHT22;20336;-33.424;-70.638;2023-07-02T22:38:15;9.40;99.90
34061;DHT22;20336;-33.424;-70.638;2023-07-02T22:40:41;9.30;99.90
34061;DHT22;20336;-33.424;-70.638;2023-07-02T22:43:08;9.30;99.90
34061;DHT22;20336;-33.424;-70.638;2023-07-02T22:45:36;9.20;99.90
34061;DHT22;20336;-33.424;-70.638;2023-07-02T22:48:04;9.20;99.90
34061;DHT22;20336;-33.424;-70.638;2023-07-02T22:50:30;9.10;99.90
34061;DHT22;20336;-33.424;-70.638;2023-07-02T22:52:57;9.10;99.90
34061;DHT22;20336;-33.424;-70.638;2023-07-02T22:55:28;9.10;99.90
34061;DHT22;20336;-33.424;-70.638;2023-07-02T22:57:56;9.00;99.90
34061;DHT22;20336;-33.424;-70.638;2023-07-02T23:00:24;8.90;99.90
34061;DHT22;20336;-33.424;-70.638;2023-07-02T23:02:51;8.80;99.90
34061;DHT22;20336;-33.424;-70.638;2023-07-02T23:05:18;8.80;99.90
34061;DHT22;20336;-33.424;-70.638;2023-07-02T23:07:48;8.70;99.90
34061;DHT22;20336;-33.424;-70.638;2023-07-02T23:10:15;8.60;99.90
34061;DHT22;20336;-33.424;-70.638;2023-07-02T23:12:47;8.60;99.90
34061;DHT22;20336;-33.424;-70.638;2023-07-02T23:15:16;8.50;99.90
34061;DHT22;20336;-33.424;-70.638;2023-07-02T23:17:45;8.40;99.90
34061;DHT22;20336;-33.424;-70.638;2023-07-02T23:20:13;8.30;99.90
34061;DHT22;20336;-33.424;-70.638;2023-07-02T23:22:42;8.30;99.90
34061;DHT22;20336;-33.424;-70.638;2023-07-02T23:25:14;8.20;99.90
34061;DHT22;20336;-33.424;-70.638;2023-07-02T23:27:42;8.20;99.90
34061;DHT22;20336;-33.424;-70.638;2023-07-02T23:30:12;8.10;99.90
34061;DHT22;20336;-33.424;-70.638;2023-07-02T23:32:40;8.00;99.90
34061;DHT22;20336;-33.424;-70.638;2023-07-02T23:35:08;8.00;99.90
34061;DHT22;20336;-33.424;-70.638;2023-07-02T23:37:36;8.10;99.90
34061;DHT22;20336;-33.424;-70.638;2023-07-02T23:40:07;8.20;99.90
34061;DHT22;20336;-33.424;-70.638;2023-07-02T23:42:36;8.30;99.90
34061;DHT22;20336;-33.424;-70.638;2023-07-02T23:45:04;8.30;99.90
34061;DHT22;20336;-33.424;-70.638;2023-07-02T23:47:32;8.40;99.90
34061;DHT22;20336;-33.424;-70.638;2023-07-02T23:49:59;8.40;99.90
34061;DHT22;20336;-33.424;-70.638;2023-07-02T23:52:26;8.30;99.90
34061;DHT22;20336;-33.424;-70.638;2023-07-02T23:54:53;8.30;99.90
34061;DHT22;20336;-33.424;-70.638;2023-07-02T23:57:20;8.20;99.90
34061;DHT22;20336;-33.424;-70.638;2023-07-02T23:59:47;8.20;99.90
